createdAt,value
2023-02-27T00:01:19.890Z,56.02
2023-02-27T00:06:40.443Z,56.08
2023-02-27T00:12:01.518Z,56.04
2023-02-27T00:17:25.803Z,56.18
2023-02-27T00:22:46.789Z,56.29
2023-02-27T00:28:08.081Z,56.13
2023-02-27T00:33:28.342Z,56.35
2023-02-27T00:38:50.023Z,56.42
2023-02-27T00:44:22.330Z,56.31
2023-02-27T00:49:42.621Z,56.28
2023-02-27T00:55:03.605Z,56.33
2023-02-27T01:00:27.296Z,56.24
2023-02-27T01:05:51.803Z,56.10
2023-02-27T01:11:15.478Z,56.13
2023-02-27T01:16:38.373Z,56.00
2023-02-27T01:22:02.024Z,56.35
2023-02-27T01:27:23.462Z,56.25
2023-02-27T01:32:44.543Z,56.13
2023-02-27T01:38:07.845Z,56.52
2023-02-27T01:43:29.476Z,56.48
2023-02-27T01:48:56.644Z,56.79
2023-02-27T01:54:21.528Z,56.65
2023-02-27T01:59:43.361Z,56.76
2023-02-27T02:05:12.709Z,56.79
2023-02-27T02:10:36.853Z,56.88
2023-02-27T02:16:23.526Z,56.93
2023-02-27T02:21:58.379Z,57.11
2023-02-27T02:27:40.812Z,57.17
2023-02-27T02:33:34.761Z,57.24
2023-02-27T02:39:12.544Z,57.02
2023-02-27T02:45:04.531Z,56.80
2023-02-27T02:50:35.431Z,57.04
2023-02-27T02:56:34.409Z,57.13
2023-02-27T03:02:02.636Z,56.76
2023-02-27T03:07:42.476Z,57.00
2023-02-27T03:13:11.410Z,56.86
2023-02-27T03:18:49.849Z,56.87
2023-02-27T03:24:30.912Z,56.91
2023-02-27T03:30:02.346Z,57.08
2023-02-27T03:35:44.130Z,57.11
2023-02-27T03:41:30.427Z,56.90
2023-02-27T03:47:10.666Z,56.85
2023-02-27T03:52:33.141Z,56.93
2023-02-27T03:58:00.921Z,57.20
2023-02-27T04:03:24.711Z,57.38
2023-02-27T04:09:20.102Z,57.37
2023-02-27T04:14:52.400Z,57.30
2023-02-27T04:20:18.076Z,57.18
2023-02-27T04:25:57.605Z,57.48
2023-02-27T04:31:22.658Z,57.42
2023-02-27T04:36:57.539Z,57.45
2023-02-27T04:42:25.888Z,57.54
2023-02-27T04:47:52.989Z,57.75
2023-02-27T04:53:24.253Z,57.90
2023-02-27T04:59:00.266Z,58.22
2023-02-27T05:04:30.632Z,57.94
2023-02-27T05:10:20.676Z,58.08
2023-02-27T05:15:47.423Z,58.09
2023-02-27T05:21:53.449Z,58.33
2023-02-27T05:27:29.731Z,58.19
2023-02-27T05:32:57.573Z,58.30
2023-02-27T05:38:38.357Z,58.61
2023-02-27T05:44:06.614Z,58.40
2023-02-27T05:49:32.194Z,58.58
2023-02-27T05:55:05.542Z,58.74
2023-02-27T06:00:38.199Z,59.06
2023-02-27T06:06:07.919Z,59.14
2023-02-27T06:11:31.377Z,59.03
2023-02-27T06:16:52.110Z,59.18
2023-02-27T06:22:12.988Z,59.47
2023-02-27T06:27:33.466Z,59.54
2023-02-27T06:32:54.025Z,59.67
2023-02-27T06:38:15.136Z,59.80
2023-02-27T06:43:36.953Z,60.01
2023-02-27T06:48:57.344Z,60.01
2023-02-27T06:54:18.134Z,59.96
2023-02-27T06:59:38.875Z,59.64
2023-02-27T07:04:59.624Z,59.98
2023-02-27T07:10:20.239Z,59.91
2023-02-27T07:15:42.264Z,60.23
2023-02-27T07:21:04.460Z,60.09
2023-02-27T07:26:25.068Z,60.04
2023-02-27T07:31:45.767Z,60.42
2023-02-27T07:37:06.460Z,60.46
2023-02-27T07:42:26.649Z,60.38
2023-02-27T07:47:49.021Z,59.99
2023-02-27T07:53:10.206Z,59.60
2023-02-27T07:58:31.093Z,59.60
2023-02-27T08:03:55.219Z,59.35
2023-02-27T08:09:18.532Z,59.31
2023-02-27T08:14:39.544Z,59.40
2023-02-27T08:20:00.340Z,59.43
2023-02-27T08:25:24.455Z,59.84
2023-02-27T08:30:45.463Z,59.98
2023-02-27T08:36:08.044Z,59.92
2023-02-27T08:41:32.108Z,60.75
2023-02-27T08:46:52.774Z,61.11
2023-02-27T08:52:13.490Z,61.11
2023-02-27T08:57:34.202Z,61.14
2023-02-27T09:03:00.663Z,61.14
2023-02-27T09:08:34.609Z,60.92
2023-02-27T09:13:55.435Z,60.45
2023-02-27T09:19:16.051Z,60.83
2023-02-27T09:24:36.766Z,61.17
2023-02-27T09:29:57.441Z,60.98
2023-02-27T09:35:20.397Z,61.09
2023-02-27T09:40:42.129Z,61.05
2023-02-27T09:46:03.279Z,61.34
2023-02-27T09:51:24.654Z,61.64
2023-02-27T09:56:50.644Z,61.29
2023-02-27T10:02:29.693Z,61.54
2023-02-27T10:08:04.635Z,60.46
2023-02-27T10:13:34.321Z,59.76
2023-02-27T10:19:11.085Z,59.29
2023-02-27T10:24:43.968Z,59.17
2023-02-27T10:30:34.605Z,59.20
2023-02-27T10:35:55.862Z,58.99
2023-02-27T10:41:19.707Z,59.06
2023-02-27T10:46:41.195Z,58.79
2023-02-27T10:52:13.605Z,53.16
2023-02-27T10:57:42.413Z,38.54
2023-02-27T11:03:03.096Z,31.68
2023-02-27T11:08:29.209Z,29.71
2023-02-27T11:13:49.789Z,26.86
2023-02-27T11:19:25.916Z,24.96
2023-02-27T11:24:47.437Z,26.22
2023-02-27T11:30:29.236Z,24.81
2023-02-27T11:35:57.053Z,25.42
2023-02-27T11:41:22.091Z,25.63
2023-02-27T11:46:48.076Z,23.57
2023-02-27T11:52:25.614Z,23.76
2023-02-27T11:57:59.787Z,23.01
2023-02-27T12:03:49.343Z,22.06
2023-02-27T12:09:32.849Z,21.27
2023-02-27T12:15:26.042Z,20.82
2023-02-27T12:21:07.597Z,21.32
2023-02-27T12:26:46.534Z,19.97
2023-02-27T12:32:23.734Z,20.09
2023-02-27T12:37:44.306Z,20.53
2023-02-27T12:43:18.976Z,21.24
2023-02-27T12:48:56.305Z,21.34
2023-02-27T12:54:47.962Z,20.73
2023-02-27T13:00:18.753Z,23.17
2023-02-27T13:05:54.637Z,23.86
2023-02-27T13:11:51.514Z,23.84
2023-02-27T13:17:21.192Z,23.50
2023-02-27T13:22:52.304Z,23.42
2023-02-27T13:28:18.338Z,23.40
2023-02-27T13:33:49.323Z,24.34
2023-02-27T13:39:43.857Z,25.37
2023-02-27T13:45:43.349Z,26.28
2023-02-27T13:51:04.255Z,27.45
2023-02-27T13:56:24.985Z,29.60
2023-02-27T14:02:05.082Z,33.94
2023-02-27T14:07:31.595Z,38.35
2023-02-27T14:12:53.046Z,41.26
2023-02-27T14:18:48.194Z,42.72
2023-02-27T14:24:14.976Z,43.79
2023-02-27T14:29:35.883Z,44.42
2023-02-27T14:34:56.978Z,44.82
2023-02-27T14:40:29.895Z,45.17
2023-02-27T14:45:53.127Z,45.95
2023-02-27T14:51:15.094Z,46.14
2023-02-27T14:56:35.968Z,46.40
2023-02-27T15:02:04.574Z,47.06
2023-02-27T15:07:26.758Z,47.39
2023-02-27T15:12:47.761Z,48.11
2023-02-27T15:18:14.178Z,48.97
2023-02-27T15:23:34.623Z,49.37
2023-02-27T15:28:55.435Z,49.63
2023-02-27T15:34:16.049Z,49.56
2023-02-27T15:39:37.065Z,49.88
2023-02-27T15:44:58.462Z,50.21
2023-02-27T15:50:28.802Z,50.17
2023-02-27T15:55:53.498Z,50.41
2023-02-27T16:01:19.025Z,50.90
2023-02-27T16:06:41.242Z,51.38
2023-02-27T16:12:22.774Z,52.07
2023-02-27T16:18:08.490Z,52.50
2023-02-27T16:23:31.823Z,52.38
2023-02-27T16:28:55.296Z,52.78
2023-02-27T16:34:42.789Z,53.29
2023-02-27T16:40:20.388Z,53.63
2023-02-27T16:45:50.681Z,53.69
2023-02-27T16:51:17.856Z,53.85
2023-02-27T16:56:39.100Z,54.10
2023-02-27T17:02:01.525Z,54.26
2023-02-27T17:07:22.217Z,54.50
2023-02-27T17:12:44.074Z,54.85
2023-02-27T17:18:05.042Z,55.20
2023-02-27T17:23:25.391Z,55.94
2023-02-27T17:28:46.486Z,56.31
2023-02-27T17:34:08.876Z,56.45
2023-02-27T17:39:29.490Z,56.56
2023-02-27T17:44:50.357Z,56.47
2023-02-27T17:50:10.869Z,56.75
2023-02-27T17:55:31.429Z,57.06
2023-02-27T18:00:51.587Z,57.41
2023-02-27T18:06:12.197Z,57.41
2023-02-27T18:11:32.782Z,57.92
2023-02-27T18:16:53.454Z,58.03
2023-02-27T18:22:17.067Z,58.10
2023-02-27T18:27:37.852Z,58.10
2023-02-27T18:32:58.868Z,58.46
2023-02-27T18:38:19.296Z,58.65
2023-02-27T18:43:41.625Z,58.76
2023-02-27T18:49:02.043Z,58.84
2023-02-27T18:54:25.501Z,58.79
2023-02-27T18:59:47.437Z,59.15
2023-02-27T19:05:11.037Z,59.20
2023-02-27T19:10:32.596Z,59.51
2023-02-27T19:15:53.906Z,59.69
2023-02-27T19:21:14.650Z,59.83
2023-02-27T19:26:35.509Z,60.11
2023-02-27T19:31:56.175Z,60.20
2023-02-27T19:37:17.377Z,60.24
2023-02-27T19:42:38.042Z,60.61
2023-02-27T19:47:59.401Z,60.76
2023-02-27T19:53:22.393Z,60.91
2023-02-27T19:58:46.661Z,60.86
2023-02-27T20:04:11.755Z,61.06
2023-02-27T20:09:33.761Z,61.26
2023-02-27T20:14:54.410Z,61.43
2023-02-27T20:20:15.217Z,61.71
2023-02-27T20:25:35.870Z,61.93
2023-02-27T20:30:58.782Z,61.68
2023-02-27T20:36:19.382Z,61.77
2023-02-27T20:41:40.318Z,61.62
2023-02-27T20:47:00.777Z,61.83
2023-02-27T20:52:21.471Z,62.04
2023-02-27T20:57:42.616Z,61.91
2023-02-27T21:03:03.682Z,61.92
2023-02-27T21:08:27.165Z,62.13
2023-02-27T21:13:48.238Z,62.16
2023-02-27T21:19:08.836Z,62.18
2023-02-27T21:24:32.485Z,62.18
2023-02-27T21:29:53.372Z,62.21
2023-02-27T21:35:16.189Z,62.31
2023-02-27T21:40:38.273Z,62.58
2023-02-27T21:46:08.886Z,62.45
2023-02-27T21:51:40.115Z,62.48
2023-02-27T21:57:05.120Z,62.83
2023-02-27T22:02:25.971Z,62.90
2023-02-27T22:07:47.164Z,62.82
2023-02-27T22:13:09.018Z,62.95
2023-02-27T22:18:30.409Z,63.08
2023-02-27T22:23:51.616Z,63.06
2023-02-27T22:29:12.474Z,63.10
2023-02-27T22:34:34.019Z,63.01
2023-02-27T22:39:55.062Z,63.08
2023-02-27T22:45:16.347Z,63.06
2023-02-27T22:50:37.148Z,63.26
2023-02-27T22:55:59.735Z,63.43
2023-02-27T23:01:23.705Z,63.16
2023-02-27T23:06:44.680Z,63.08
2023-02-27T23:12:05.567Z,63.02
2023-02-27T23:17:26.052Z,63.37
2023-02-27T23:22:46.581Z,63.01
2023-02-27T23:28:07.967Z,63.23
2023-02-27T23:33:30.099Z,63.16
2023-02-27T23:38:50.366Z,63.25
2023-02-27T23:44:11.286Z,63.05
2023-02-27T23:49:31.715Z,63.18
2023-02-27T23:54:52.288Z,63.01
